Time;durP1;ratioP1;P1;durP2;ratioP2;P2;SDS_P1;SDS_P2;PMS_P1;PMS_P2;Temp;Humidity;BMP_temperature;BMP_pressure;BME280_temperature;BME280_humidity;BME280_pressure;Samples;Min_cycle;Max_cycle;Signal;HPM_P1;HPM_P2
2022/07/10 00:00:09;;;;;;;3.30;2.93;;;;;;;;;;5075071;28;20225;-83
2022/07/10 00:02:36;;;;;;;4.23;3.00;;;;;;;;;;5075180;28;20236;-83
2022/07/10 00:05:05;;;;;;;4.00;3.40;;;;;;;;;;5074238;28;20229;-83
2022/07/10 00:07:32;;;;;;;2.80;2.60;;;;;;;;;;5075311;28;20209;-83
2022/07/10 00:09:59;;;;;;;2.90;2.50;;;;;;;;;;5074708;28;20241;-83
2022/07/10 00:12:26;;;;;;;2.77;2.50;;;;;;;;;;5075284;28;20229;-83
2022/07/10 00:14:54;;;;;;;2.27;2.17;;;;;;;;;;5074309;28;20233;-83
2022/07/10 00:17:21;;;;;;;4.83;2.40;;;;;;;;;;5074964;28;20205;-83
2022/07/10 00:19:48;;;;;;;3.17;2.33;;;;;;;;;;5074493;28;20237;-83
2022/07/10 00:22:16;;;;;;;2.37;2.20;;;;;;;;;;5074987;28;20769;-83
2022/07/10 00:24:43;;;;;;;3.87;2.60;;;;;;;;;;5074644;28;20233;-83
2022/07/10 00:27:10;;;;;;;2.60;2.40;;;;;;;;;;5075215;28;20614;-83
2022/07/10 00:29:37;;;;;;;2.70;2.40;;;;;;;;;;5074284;28;20244;-83
2022/07/10 00:32:05;;;;;;;3.73;2.30;;;;;;;;;;5075242;28;20628;-83
2022/07/10 00:34:32;;;;;;;5.13;2.23;;;;;;;;;;5073931;28;20290;-83
2022/07/10 00:36:59;;;;;;;3.73;2.50;;;;;;;;;;5074774;28;20217;-83
2022/07/10 00:39:28;;;;;;;3.13;2.63;;;;;;;;;;5074234;28;20241;-83
2022/07/10 00:41:55;;;;;;;4.40;2.77;;;;;;;;;;5084527;28;20241;-84
2022/07/10 00:44:22;;;;;;;3.57;2.60;;;;;;;;;;5074037;28;20233;-83
2022/07/10 00:46:49;;;;;;;2.80;2.20;;;;;;;;;;5075301;28;20608;-83
2022/07/10 00:49:16;;;;;;;2.10;1.97;;;;;;;;;;5074815;28;20735;-83
2022/07/10 00:51:44;;;;;;;2.43;2.10;;;;;;;;;;5074083;28;20233;-83
2022/07/10 00:54:11;;;;;;;5.03;2.53;;;;;;;;;;5073502;28;20233;-83
2022/07/10 00:56:40;;;;;;;2.10;2.00;;;;;;;;;;5074482;28;20212;-83
2022/07/10 00:59:07;;;;;;;7.03;2.60;;;;;;;;;;5073452;28;20712;-83
2022/07/10 01:01:34;;;;;;;3.57;2.07;;;;;;;;;;5066183;28;20225;-83
2022/07/10 01:04:01;;;;;;;3.27;2.30;;;;;;;;;;5037486;28;20269;-85
2022/07/10 01:06:28;;;;;;;3.07;2.17;;;;;;;;;;5044587;28;20206;-83
2022/07/10 01:08:55;;;;;;;2.70;2.47;;;;;;;;;;5037094;28;20313;-83
2022/07/10 01:11:22;;;;;;;2.73;2.07;;;;;;;;;;5036828;28;20643;-83
2022/07/10 01:13:51;;;;;;;2.30;2.00;;;;;;;;;;5053334;28;20233;-83
2022/07/10 01:16:18;;;;;;;2.20;1.93;;;;;;;;;;5053546;28;20731;-83
2022/07/10 01:18:45;;;;;;;2.67;2.00;;;;;;;;;;5053065;28;20287;-83
2022/07/10 01:21:26;;;;;;;5.60;2.10;;;;;;;;;;5053673;28;20224;-83
2022/07/10 01:23:53;;;;;;;2.10;1.87;;;;;;;;;;5053098;28;20234;-83
2022/07/10 01:26:21;;;;;;;3.93;1.83;;;;;;;;;;5053958;28;20297;-83
2022/07/10 01:28:49;;;;;;;2.03;1.90;;;;;;;;;;5053204;28;20969;-83
2022/07/10 01:31:16;;;;;;;2.23;1.80;;;;;;;;;;5053404;28;20705;-83
2022/07/10 01:33:44;;;;;;;3.57;1.60;;;;;;;;;;5052780;28;20226;-83
2022/07/10 01:36:11;;;;;;;3.10;1.80;;;;;;;;;;5053369;28;20662;-83
2022/07/10 01:38:40;;;;;;;3.40;1.83;;;;;;;;;;5053187;28;20240;-83
2022/07/10 01:41:08;;;;;;;2.20;1.90;;;;;;;;;;5053534;28;20207;-83
2022/07/10 01:43:35;;;;;;;3.53;1.70;;;;;;;;;;5052797;28;20225;-83
2022/07/10 01:46:02;;;;;;;2.47;1.80;;;;;;;;;;5054491;28;20210;-83
2022/07/10 01:48:29;;;;;;;2.47;1.83;;;;;;;;;;5052849;28;20324;-83
2022/07/10 01:50:56;;;;;;;4.23;1.90;;;;;;;;;;5052937;28;20225;-83
2022/07/10 01:53:23;;;;;;;2.80;1.87;;;;;;;;;;5052564;28;20236;-83
2022/07/10 01:55:52;;;;;;;2.63;1.63;;;;;;;;;;5056719;28;20232;-83
2022/07/10 01:58:19;;;;;;;2.20;1.70;;;;;;;;;;5055878;28;20241;-83
2022/07/10 02:00:46;;;;;;;2.40;1.53;;;;;;;;;;5042284;28;20203;-83
2022/07/10 02:05:57;;;;;;;1.70;1.60;;;;;;;;;;5033059;28;20178;-83
2022/07/10 02:08:25;;;;;;;1.80;1.40;;;;;;;;;;5032616;28;20226;-83
2022/07/10 02:10:53;;;;;;;4.53;1.63;;;;;;;;;;5032901;28;20231;-83
2022/07/10 02:13:20;;;;;;;3.07;1.47;;;;;;;;;;5032247;28;20234;-83
2022/07/10 02:15:48;;;;;;;4.40;1.60;;;;;;;;;;5032946;28;20203;-83
2022/07/10 02:18:15;;;;;;;1.80;1.70;;;;;;;;;;5032584;28;20309;-83
2022/07/10 02:20:42;;;;;;;2.70;1.23;;;;;;;;;;5033132;28;20229;-83
2022/07/10 02:23:09;;;;;;;2.00;1.50;;;;;;;;;;5032461;28;20234;-83
2022/07/10 02:25:36;;;;;;;2.87;1.57;;;;;;;;;;5032910;28;20577;-83
2022/07/10 02:28:05;;;;;;;1.87;1.70;;;;;;;;;;5032442;28;20206;-83
2022/07/10 02:30:32;;;;;;;1.73;1.50;;;;;;;;;;5032612;28;20284;-83
2022/07/10 02:32:59;;;;;;;3.07;1.70;;;;;;;;;;5032113;28;20624;-83
2022/07/10 02:35:26;;;;;;;1.80;1.60;;;;;;;;;;5032849;28;20260;-83
2022/07/10 02:37:53;;;;;;;4.60;1.70;;;;;;;;;;5032240;28;20214;-83
2022/07/10 02:40:20;;;;;;;4.27;1.83;;;;;;;;;;5032689;28;20306;-83
2022/07/10 02:42:47;;;;;;;1.43;1.33;;;;;;;;;;5032178;28;20639;-83
2022/07/10 02:45:16;;;;;;;7.03;1.70;;;;;;;;;;5042893;28;20237;-83
2022/07/10 02:47:43;;;;;;;2.50;1.60;;;;;;;;;;5035973;28;20211;-83
2022/07/10 02:50:10;;;;;;;1.73;1.50;;;;;;;;;;5033336;28;20256;-83
2022/07/10 02:52:37;;;;;;;1.80;1.60;;;;;;;;;;5032703;28;20227;-83
2022/07/10 02:55:04;;;;;;;2.27;1.67;;;;;;;;;;5032294;28;20242;-83
2022/07/10 02:57:31;;;;;;;1.50;1.40;;;;;;;;;;5032527;28;20207;-83
2022/07/10 02:59:58;;;;;;;2.20;1.80;;;;;;;;;;5031795;28;20234;-83
2022/07/10 03:02:27;;;;;;;3.33;1.70;;;;;;;;;;5032459;28;20707;-83
2022/07/10 03:04:54;;;;;;;2.30;1.70;;;;;;;;;;5039291;28;20250;-83
2022/07/10 03:07:21;;;;;;;2.37;1.57;;;;;;;;;;5049577;28;20543;-83
2022/07/10 03:09:48;;;;;;;1.97;1.70;;;;;;;;;;5045382;28;20722;-83
2022/07/10 03:12:15;;;;;;;3.47;1.60;;;;;;;;;;5038180;28;20238;-83
2022/07/10 03:14:45;;;;;;;2.87;1.70;;;;;;;;;;5035476;28;20260;-83
2022/07/10 03:17:12;;;;;;;1.67;1.57;;;;;;;;;;5036008;28;20206;-83
2022/07/10 03:19:41;;;;;;;2.50;1.60;;;;;;;;;;5035678;28;20230;-83
2022/07/10 03:22:08;;;;;;;1.63;1.53;;;;;;;;;;5035962;28;20227;-83
2022/07/10 03:24:35;;;;;;;3.43;1.60;;;;;;;;;;5035420;28;20609;-83
2022/07/10 03:27:02;;;;;;;2.83;1.70;;;;;;;;;;5036197;28;20210;-84
2022/07/10 03:29:29;;;;;;;3.17;1.33;;;;;;;;;;5035717;28;20238;-83
2022/07/10 03:31:56;;;;;;;3.43;1.57;;;;;;;;;;5035643;28;20702;-84
2022/07/10 03:34:23;;;;;;;2.50;1.60;;;;;;;;;;5035252;28;20239;-83
2022/07/10 03:36:51;;;;;;;2.93;1.43;;;;;;;;;;5036078;28;20233;-83
2022/07/10 03:39:19;;;;;;;1.97;1.50;;;;;;;;;;5035226;28;20242;-83
2022/07/10 03:41:46;;;;;;;4.17;1.47;;;;;;;;;;5035713;28;20710;-83
2022/07/10 03:44:13;;;;;;;1.50;1.40;;;;;;;;;;5035101;28;20238;-83
2022/07/10 03:46:40;;;;;;;2.93;1.60;;;;;;;;;;5035940;28;20298;-83
2022/07/10 03:49:07;;;;;;;4.93;1.40;;;;;;;;;;5035013;28;20238;-83
2022/07/10 03:51:35;;;;;;;2.47;1.67;;;;;;;;;;5035903;28;20265;-83
2022/07/10 03:54:04;;;;;;;3.33;1.90;;;;;;;;;;5034961;28;20660;-83
2022/07/10 03:59:15;;;;;;;1.50;1.40;;;;;;;;;;5044634;28;20241;-83
2022/07/10 04:01:42;;;;;;;2.17;1.53;;;;;;;;;;5037346;28;20369;-83
2022/07/10 04:04:10;;;;;;;1.40;1.30;;;;;;;;;;5035319;28;20242;-83
2022/07/10 04:06:38;;;;;;;1.50;1.40;;;;;;;;;;5035935;28;20207;-83
2022/07/10 04:09:07;;;;;;;2.13;1.70;;;;;;;;;;5039633;28;20277;-83
2022/07/10 04:11:34;;;;;;;1.83;1.40;;;;;;;;;;5035202;28;20234;-84
2022/07/10 04:14:01;;;;;;;1.40;1.40;;;;;;;;;;5034462;28;20245;-83
2022/07/10 04:16:28;;;;;;;1.60;1.50;;;;;;;;;;5035216;28;20589;-84
2022/07/10 04:18:55;;;;;;;1.70;1.60;;;;;;;;;;5033211;28;20226;-84
2022/07/10 04:21:22;;;;;;;2.67;1.60;;;;;;;;;;5036008;28;20226;-83
2022/07/10 04:23:49;;;;;;;2.93;1.97;;;;;;;;;;5035634;28;20237;-82
2022/07/10 04:26:17;;;;;;;2.10;1.90;;;;;;;;;;5036055;28;20582;-83
2022/07/10 04:28:44;;;;;;;5.27;1.63;;;;;;;;;;5035862;28;20607;-83
2022/07/10 04:31:11;;;;;;;1.70;1.57;;;;;;;;;;5035429;28;20234;-82
2022/07/10 04:33:38;;;;;;;1.60;1.50;;;;;;;;;;5035353;28;20226;-83
2022/07/10 04:36:06;;;;;;;3.67;1.87;;;;;;;;;;5035510;28;20246;-83
2022/07/10 04:38:33;;;;;;;1.93;1.60;;;;;;;;;;5035439;28;20242;-83
2022/07/10 04:41:00;;;;;;;3.07;1.60;;;;;;;;;;5035335;28;20551;-83
2022/07/10 04:43:29;;;;;;;1.60;1.50;;;;;;;;;;5035242;28;20235;-82
2022/07/10 04:45:56;;;;;;;1.80;1.70;;;;;;;;;;5035019;28;20205;-85
2022/07/10 04:48:23;;;;;;;4.47;1.70;;;;;;;;;;5034997;28;20239;-83
2022/07/10 04:50:50;;;;;;;1.50;1.40;;;;;;;;;;5035172;28;20210;-82
2022/07/10 04:53:17;;;;;;;2.17;1.70;;;;;;;;;;5034193;28;20234;-82
2022/07/10 04:55:44;;;;;;;1.60;1.50;;;;;;;;;;5035499;28;20211;-83
2022/07/10 04:58:11;;;;;;;3.50;1.57;;;;;;;;;;5035187;28;20241;-83
2022/07/10 05:00:39;;;;;;;2.80;1.57;;;;;;;;;;5036027;28;20697;-82
2022/07/10 05:03:07;;;;;;;1.57;1.47;;;;;;;;;;5036556;28;20227;-84
2022/07/10 05:05:34;;;;;;;2.70;1.57;;;;;;;;;;5038433;28;20206;-82
2022/07/10 05:08:01;;;;;;;1.63;1.53;;;;;;;;;;5036848;28;20563;-84
2022/07/10 05:10:28;;;;;;;2.80;1.60;;;;;;;;;;5036014;28;20206;-83
2022/07/10 05:12:55;;;;;;;4.00;1.70;;;;;;;;;;5035602;28;20721;-84
2022/07/10 05:15:22;;;;;;;2.20;1.47;;;;;;;;;;5036376;28;20207;-82
2022/07/10 05:17:50;;;;;;;2.67;1.90;;;;;;;;;;5035671;28;20740;-83
2022/07/10 05:20:18;;;;;;;2.77;1.60;;;;;;;;;;5036198;28;20207;-83
2022/07/10 05:22:45;;;;;;;1.53;1.30;;;;;;;;;;5034082;28;20218;-83
2022/07/10 05:25:12;;;;;;;1.80;1.50;;;;;;;;;;5033383;28;20717;-83
2022/07/10 05:27:39;;;;;;;2.57;1.73;;;;;;;;;;5033982;28;20675;-84
2022/07/10 05:30:06;;;;;;;3.40;1.20;;;;;;;;;;5033035;28;20238;-83
2022/07/10 05:32:33;;;;;;;2.00;1.43;;;;;;;;;;5034119;28;20242;-84
2022/07/10 05:35:02;;;;;;;2.70;1.60;;;;;;;;;;5033205;28;20744;-84
2022/07/10 05:37:29;;;;;;;2.80;1.50;;;;;;;;;;5033346;28;20206;-83
2022/07/10 05:39:56;;;;;;;1.97;1.37;;;;;;;;;;5033820;28;20237;-83
2022/07/10 05:42:23;;;;;;;2.30;1.50;;;;;;;;;;5033280;28;20745;-84
2022/07/10 05:44:50;;;;;;;1.53;1.43;;;;;;;;;;5033219;28;20243;-84
2022/07/10 05:47:17;;;;;;;1.93;1.30;;;;;;;;;;5034065;28;20211;-83
2022/07/10 05:49:44;;;;;;;1.33;1.10;;;;;;;;;;5033184;28;20230;-83
2022/07/10 05:52:12;;;;;;;4.47;1.50;;;;;;;;;;5034043;28;20230;-83
2022/07/10 05:54:39;;;;;;;2.27;1.13;;;;;;;;;;5038518;28;20234;-84
2022/07/10 05:57:07;;;;;;;1.43;1.30;;;;;;;;;;5050581;28;20206;-86
2022/07/10 05:59:35;;;;;;;4.70;1.17;;;;;;;;;;5041481;28;20726;-84
2022/07/10 06:02:02;;;;;;;2.00;1.17;;;;;;;;;;5037015;28;20218;-86
2022/07/10 06:04:29;;;;;;;2.20;1.17;;;;;;;;;;5032468;28;20729;-83
2022/07/10 06:06:56;;;;;;;1.00;1.00;;;;;;;;;;5034659;28;20217;-81
2022/07/10 06:09:24;;;;;;;1.83;1.07;;;;;;;;;;5042055;28;20257;-82
2022/07/10 06:11:51;;;;;;;2.73;1.13;;;;;;;;;;5041826;28;20269;-81
2022/07/10 06:14:19;;;;;;;1.97;1.17;;;;;;;;;;5041825;28;20242;-83
2022/07/10 06:16:46;;;;;;;2.30;1.30;;;;;;;;;;5041362;28;20693;-81
2022/07/10 06:19:13;;;;;;;3.60;1.50;;;;;;;;;;5036996;28;20244;-82
2022/07/10 06:21:40;;;;;;;1.87;0.83;;;;;;;;;;5036744;28;20265;-82
2022/07/10 06:24:07;;;;;;;2.07;1.10;;;;;;;;;;5036108;28;20234;-83
2022/07/10 06:26:35;;;;;;;2.60;0.87;;;;;;;;;;5036329;28;20203;-82
2022/07/10 06:29:02;;;;;;;1.03;0.97;;;;;;;;;;5035778;28;20258;-82
2022/07/10 06:31:29;;;;;;;2.23;1.10;;;;;;;;;;5037045;28;20227;-82
2022/07/10 06:33:56;;;;;;;1.83;1.10;;;;;;;;;;5035766;28;20284;-81
2022/07/10 06:36:23;;;;;;;2.03;1.13;;;;;;;;;;5036737;28;20207;-82
2022/07/10 06:38:50;;;;;;;1.23;1.03;;;;;;;;;;5036636;28;20226;-81
2022/07/10 06:41:17;;;;;;;3.90;1.27;;;;;;;;;;5036356;28;20234;-83
2022/07/10 06:43:46;;;;;;;1.00;0.97;;;;;;;;;;5036229;28;20229;-82
2022/07/10 06:46:13;;;;;;;2.00;0.90;;;;;;;;;;5037070;28;20694;-82
2022/07/10 06:48:40;;;;;;;1.77;0.93;;;;;;;;;;5036374;28;20230;-82
2022/07/10 06:51:07;;;;;;;1.07;0.93;;;;;;;;;;5037181;28;20297;-82
2022/07/10 06:53:34;;;;;;;2.23;0.90;;;;;;;;;;5036380;28;20268;-83
2022/07/10 06:56:01;;;;;;;0.87;0.87;;;;;;;;;;5037551;28;20205;-82
2022/07/10 06:58:28;;;;;;;1.87;0.90;;;;;;;;;;5036276;28;20226;-83
2022/07/10 07:00:57;;;;;;;4.03;1.00;;;;;;;;;;5048998;28;20206;-83
2022/07/10 07:03:24;;;;;;;2.10;0.80;;;;;;;;;;5055588;28;20237;-82
2022/07/10 07:05:51;;;;;;;1.63;1.00;;;;;;;;;;5055680;28;20206;-84
2022/07/10 07:08:18;;;;;;;2.17;0.90;;;;;;;;;;5054847;28;20242;-82
2022/07/10 07:10:45;;;;;;;1.13;1.00;;;;;;;;;;5055898;28;20666;-83
2022/07/10 07:13:12;;;;;;;0.97;0.73;;;;;;;;;;5055208;28;20260;-83
2022/07/10 07:15:46;;;;;;;1.50;0.90;;;;;;;;;;5055759;28;20224;-82
2022/07/10 07:18:16;;;;;;;1.60;0.87;;;;;;;;;;5055790;28;20234;-83
2022/07/10 07:23:28;;;;;;;2.10;1.03;;;;;;;;;;5055903;28;20305;-81
2022/07/10 07:25:55;;;;;;;1.97;0.90;;;;;;;;;;5057092;28;20589;-83
2022/07/10 07:28:22;;;;;;;0.57;0.50;;;;;;;;;;5056811;28;20741;-82
2022/07/10 07:30:49;;;;;;;3.40;0.90;;;;;;;;;;5056702;28;20312;-82
2022/07/10 07:33:18;;;;;;;0.83;0.80;;;;;;;;;;5058171;28;20237;-82
2022/07/10 07:35:45;;;;;;;2.10;0.80;;;;;;;;;;5057299;28;20205;-82
2022/07/10 07:38:12;;;;;;;0.87;0.53;;;;;;;;;;5056059;28;20233;-82
2022/07/10 07:40:39;;;;;;;1.53;0.70;;;;;;;;;;5056647;28;20301;-82
2022/07/10 07:43:06;;;;;;;2.10;0.93;;;;;;;;;;5056333;28;20242;-83
2022/07/10 07:45:34;;;;;;;1.97;1.03;;;;;;;;;;5056817;28;20214;-83
2022/07/10 07:48:01;;;;;;;2.33;0.65;;;;;;;;;;5056398;28;20250;-83
2022/07/10 07:50:31;;;;;;;0.70;0.70;;;;;;;;;;5056186;28;20223;-82
2022/07/10 07:52:59;;;;;;;0.85;0.73;;;;;;;;;;5058002;28;20230;-83
2022/07/10 07:55:26;;;;;;;2.05;0.70;;;;;;;;;;5062439;28;20210;-80
2022/07/10 07:57:54;;;;;;;1.50;1.02;;;;;;;;;;5056103;28;20300;-79
2022/07/10 08:00:22;;;;;;;1.35;0.93;;;;;;;;;;5048671;28;20198;-79
2022/07/10 08:02:50;;;;;;;1.25;0.70;;;;;;;;;;5042925;28;20265;-79
2022/07/10 08:05:17;;;;;;;1.05;0.70;;;;;;;;;;5036422;28;20245;-79
2022/07/10 08:07:46;;;;;;;3.05;0.80;;;;;;;;;;5036178;28;20245;-79
2022/07/10 08:10:14;;;;;;;0.93;0.60;;;;;;;;;;5035215;28;20650;-78
2022/07/10 08:12:41;;;;;;;2.83;0.82;;;;;;;;;;5035845;28;20234;-78
2022/07/10 08:15:09;;;;;;;1.67;0.63;;;;;;;;;;5034766;28;20234;-78
2022/07/10 08:17:36;;;;;;;2.42;1.13;;;;;;;;;;5035007;28;20227;-79
2022/07/10 08:20:03;;;;;;;2.22;1.08;;;;;;;;;;5034986;28;20231;-78
2022/07/10 08:22:30;;;;;;;1.20;0.80;;;;;;;;;;5045025;28;20685;-79
2022/07/10 08:24:59;;;;;;;1.10;0.70;;;;;;;;;;5053604;28;20256;-77
2022/07/10 08:27:26;;;;;;;2.15;0.95;;;;;;;;;;5048725;28;20207;-82
2022/07/10 08:29:53;;;;;;;1.20;0.70;;;;;;;;;;5050994;28;20238;-80
2022/07/10 08:32:20;;;;;;;1.83;0.68;;;;;;;;;;5050960;28;20609;-80
2022/07/10 08:34:48;;;;;;;2.35;0.60;;;;;;;;;;5058684;28;20230;-81
2022/07/10 08:37:15;;;;;;;2.15;0.80;;;;;;;;;;5061147;28;20308;-84
2022/07/10 08:39:42;;;;;;;3.30;0.80;;;;;;;;;;5058849;28;20240;-82
2022/07/10 08:42:12;;;;;;;1.83;1.00;;;;;;;;;;5059870;28;20288;-82
2022/07/10 08:44:39;;;;;;;2.70;0.70;;;;;;;;;;5058298;28;20292;-84
2022/07/10 08:47:06;;;;;;;1.38;0.73;;;;;;;;;;5061746;28;20268;-82
2022/07/10 08:49:35;;;;;;;1.55;0.60;;;;;;;;;;5060328;28;20234;-83
2022/07/10 08:52:04;;;;;;;0.47;0.47;;;;;;;;;;5061849;28;20230;-81
2022/07/10 08:54:32;;;;;;;1.60;0.52;;;;;;;;;;5059106;28;20747;-81
2022/07/10 08:57:00;;;;;;;0.95;0.57;;;;;;;;;;5059942;28;20236;-80
2022/07/10 08:59:29;;;;;;;2.17;1.00;;;;;;;;;;5061408;28;20245;-81
2022/07/10 09:01:56;;;;;;;1.08;0.63;;;;;;;;;;5062186;28;20279;-82
2022/07/10 09:04:24;;;;;;;1.63;0.88;;;;;;;;;;5058555;28;20321;-83
2022/07/10 09:06:51;;;;;;;1.08;0.80;;;;;;;;;;5059632;28;20213;-83
2022/07/10 09:09:19;;;;;;;0.82;0.60;;;;;;;;;;5060670;28;20622;-83
2022/07/10 09:11:46;;;;;;;1.75;0.63;;;;;;;;;;5059784;28;20237;-83
2022/07/10 09:14:15;;;;;;;1.65;0.50;;;;;;;;;;5058564;28;20237;-82
2022/07/10 09:16:45;;;;;;;1.63;0.57;;;;;;;;;;5060033;28;20202;-81
2022/07/10 09:19:16;;;;;;;1.13;0.55;;;;;;;;;;5059579;28;20244;-82
2022/07/10 09:21:43;;;;;;;1.42;0.52;;;;;;;;;;5061041;28;20236;-81
2022/07/10 09:24:11;;;;;;;0.40;0.40;;;;;;;;;;5078400;28;20229;-84
2022/07/10 09:26:38;;;;;;;1.38;0.47;;;;;;;;;;5079705;28;20210;-81
2022/07/10 09:29:08;;;;;;;1.77;0.63;;;;;;;;;;5079934;28;20251;-81
2022/07/10 09:31:51;;;;;;;1.17;0.60;;;;;;;;;;5081896;28;20251;-81
2022/07/10 09:34:20;;;;;;;3.30;0.80;;;;;;;;;;5084505;28;20244;-81
2022/07/10 09:36:47;;;;;;;1.23;0.63;;;;;;;;;;5084945;28;20208;-82
2022/07/10 09:39:14;;;;;;;1.55;0.55;;;;;;;;;;5090039;28;20233;-83
2022/07/10 09:41:41;;;;;;;0.80;0.50;;;;;;;;;;5084150;28;20586;-84
2022/07/10 09:44:09;;;;;;;1.27;0.70;;;;;;;;;;5084174;28;20255;-82
2022/07/10 09:46:37;;;;;;;1.10;0.95;;;;;;;;;;5088492;28;20209;-82
2022/07/10 09:49:05;;;;;;;1.75;0.70;;;;;;;;;;5083196;28;20251;-83
2022/07/10 09:51:35;;;;;;;0.68;0.45;;;;;;;;;;5083298;28;20222;-84
2022/07/10 09:54:03;;;;;;;1.48;0.70;;;;;;;;;;5075550;28;20704;-83
2022/07/10 09:56:34;;;;;;;3.22;0.55;;;;;;;;;;5075242;28;20205;-84
2022/07/10 09:59:02;;;;;;;1.08;0.68;;;;;;;;;;5057897;28;20242;-83
2022/07/10 10:01:30;;;;;;;0.70;0.60;;;;;;;;;;5047807;28;20225;-84
2022/07/10 10:04:01;;;;;;;1.27;0.60;;;;;;;;;;5068068;28;20236;-84
2022/07/10 10:06:29;;;;;;;0.65;0.43;;;;;;;;;;5069140;28;20209;-83
2022/07/10 10:08:59;;;;;;;3.25;0.70;;;;;;;;;;5067072;28;20724;-84
2022/07/10 10:11:28;;;;;;;1.70;0.75;;;;;;;;;;5073653;28;20229;-84
2022/07/10 10:13:55;;;;;;;1.23;0.60;;;;;;;;;;5072820;28;20241;-84
2022/07/10 10:16:22;;;;;;;1.52;0.90;;;;;;;;;;5072569;28;20218;-85
2022/07/10 10:21:35;;;;;;;2.88;0.93;;;;;;;;;;5078752;22;20327;-85
2022/07/10 10:24:03;;;;;;;0.90;0.40;;;;;;;;;;5051160;28;20240;-83
2022/07/10 10:26:30;;;;;;;2.15;0.40;;;;;;;;;;5052774;28;20202;-82
2022/07/10 10:28:58;;;;;;;1.35;0.77;;;;;;;;;;5051949;28;20238;-82
2022/07/10 10:31:25;;;;;;;1.42;0.60;;;;;;;;;;5051472;28;20230;-83
2022/07/10 10:33:55;;;;;;;6.80;1.20;;;;;;;;;;5040493;28;20337;-82
2022/07/10 10:36:44;;;;;;;2.47;0.60;;;;;;;;;;5048307;28;20239;-83
2022/07/10 10:39:13;;;;;;;0.70;0.50;;;;;;;;;;5072398;28;20225;-83
2022/07/10 10:41:41;;;;;;;0.95;0.50;;;;;;;;;;5072126;28;20221;-83
2022/07/10 10:44:21;;;;;;;1.13;0.50;;;;;;;;;;5071875;28;20237;-83
2022/07/10 10:46:56;;;;;;;0.60;0.60;;;;;;;;;;5072077;28;20208;-83
2022/07/10 10:49:25;;;;;;;3.67;1.20;;;;;;;;;;5079315;28;20216;-83
2022/07/10 10:51:58;;;;;;;1.70;0.75;;;;;;;;;;5074748;28;20221;-82
2022/07/10 10:54:27;;;;;;;1.05;0.70;;;;;;;;;;5071634;28;20265;-82
2022/07/10 10:57:12;;;;;;;3.78;2.28;;;;;;;;;;5072939;28;20213;-83
2022/07/10 10:59:46;;;;;;;2.13;0.70;;;;;;;;;;5071839;28;20638;-83
2022/07/10 11:02:23;;;;;;;1.77;0.95;;;;;;;;;;5071815;28;20311;-83
2022/07/10 11:04:51;;;;;;;1.58;0.80;;;;;;;;;;5054115;28;20268;-85
2022/07/10 11:07:33;;;;;;;1.27;0.47;;;;;;;;;;5045686;28;20659;-86
2022/07/10 11:10:15;;;;;;;1.70;0.82;;;;;;;;;;5067221;28;20233;-86
2022/07/10 11:15:41;;;;;;;0.85;0.80;;;;;;;;;;5113067;27;21129;-89
2022/07/10 11:18:10;;;;;;;1.65;0.98;;;;;;;;;;5112954;28;20249;-88
2022/07/10 11:20:41;;;;;;;2.63;0.65;;;;;;;;;;5112702;28;20200;-86
2022/07/10 11:23:37;;;;;;;1.10;1.10;;;;;;;;;;5112390;28;20211;-87
2022/07/10 11:26:11;;;;;;;1.63;1.15;;;;;;;;;;5109459;28;20196;-86
2022/07/10 11:28:50;;;;;;;8.52;7.00;;;;;;;;;;5096939;27;20229;-86
2022/07/10 11:31:19;;;;;;;1.13;0.68;;;;;;;;;;5050807;28;20313;-90
2022/07/10 11:33:48;;;;;;;3.05;1.08;;;;;;;;;;5048822;28;20233;-88
2022/07/10 11:36:15;;;;;;;1.00;0.73;;;;;;;;;;5049163;28;20210;-88
2022/07/10 11:38:43;;;;;;;1.90;1.23;;;;;;;;;;5048632;28;20571;-87
2022/07/10 11:41:21;;;;;;;2.80;1.60;;;;;;;;;;5058544;28;20233;-88
2022/07/10 11:43:48;;;;;;;1.55;0.70;;;;;;;;;;5075783;28;20345;-88
2022/07/10 11:46:16;;;;;;;1.70;1.25;;;;;;;;;;5066124;28;20196;-87
2022/07/10 11:48:45;;;;;;;1.85;0.93;;;;;;;;;;5055167;28;20241;-88
2022/07/10 11:51:19;;;;;;;2.53;0.93;;;;;;;;;;5072130;28;20226;-88
2022/07/10 11:54:03;;;;;;;3.00;0.80;;;;;;;;;;5068335;28;20557;-87
2022/07/10 11:56:32;;;;;;;2.25;0.70;;;;;;;;;;5069044;28;20673;-88
2022/07/10 11:59:00;;;;;;;2.00;0.90;;;;;;;;;;5068031;28;20244;-88
2022/07/10 12:01:28;;;;;;;1.90;0.90;;;;;;;;;;5069860;28;20225;-87
2022/07/10 12:03:57;;;;;;;5.30;1.00;;;;;;;;;;5067079;28;20751;-88
2022/07/10 12:06:25;;;;;;;3.00;1.63;;;;;;;;;;5067772;28;20658;-87
2022/07/10 12:08:52;;;;;;;1.17;0.80;;;;;;;;;;5067826;28;20237;-87
2022/07/10 12:11:21;;;;;;;1.65;0.80;;;;;;;;;;5068149;28;20861;-88
2022/07/10 12:13:48;;;;;;;1.50;1.08;;;;;;;;;;5068078;28;20233;-87
2022/07/10 12:16:17;;;;;;;1.90;1.20;;;;;;;;;;5056333;28;20206;-88
2022/07/10 12:18:45;;;;;;;1.55;0.75;;;;;;;;;;5067979;28;20221;-87
2022/07/10 12:21:14;;;;;;;2.20;0.90;;;;;;;;;;5065075;28;20221;-86
2022/07/10 12:23:41;;;;;;;4.05;1.38;;;;;;;;;;5067429;28;20241;-86
2022/07/10 12:26:10;;;;;;;2.95;1.10;;;;;;;;;;5067141;28;20259;-86
2022/07/10 12:28:49;;;;;;;1.13;0.80;;;;;;;;;;5060614;28;20262;-85
2022/07/10 12:31:21;;;;;;;2.67;0.70;;;;;;;;;;5072813;28;20256;-84
2022/07/10 12:33:51;;;;;;;1.60;0.80;;;;;;;;;;5073742;28;20229;-85
2022/07/10 12:36:20;;;;;;;3.25;0.90;;;;;;;;;;5073802;28;20304;-86
2022/07/10 12:38:55;;;;;;;2.38;1.08;;;;;;;;;;5054132;28;20233;-85
2022/07/10 12:41:24;;;;;;;1.40;0.70;;;;;;;;;;5053821;28;20214;-86
2022/07/10 12:43:52;;;;;;;1.60;0.60;;;;;;;;;;5053484;28;20237;-85
2022/07/10 12:46:19;;;;;;;2.10;0.90;;;;;;;;;;5069434;28;20696;-86
2022/07/10 12:49:02;;;;;;;4.25;0.90;;;;;;;;;;5055039;28;20257;-89
2022/07/10 12:51:31;;;;;;;1.50;0.60;;;;;;;;;;5054458;28;20229;-89
2022/07/10 12:53:58;;;;;;;1.98;1.00;;;;;;;;;;5053420;28;20650;-86
2022/07/10 12:56:28;;;;;;;3.35;0.95;;;;;;;;;;5054904;28;20213;-87
2022/07/10 12:58:56;;;;;;;1.52;1.00;;;;;;;;;;5054845;28;20249;-87
2022/07/10 13:01:23;;;;;;;1.52;0.90;;;;;;;;;;5072583;28;20226;-87
2022/07/10 13:03:50;;;;;;;2.53;0.82;;;;;;;;;;5073337;28;20234;-86
2022/07/10 13:06:27;;;;;;;3.08;1.35;;;;;;;;;;5073799;28;20202;-88
2022/07/10 13:08:56;;;;;;;1.92;0.88;;;;;;;;;;5072091;28;20247;-87
2022/07/10 13:11:23;;;;;;;2.65;1.10;;;;;;;;;;5071450;28;20232;-85
2022/07/10 13:13:50;;;;;;;3.40;1.02;;;;;;;;;;5070688;28;20709;-85
2022/07/10 13:16:17;;;;;;;3.25;0.90;;;;;;;;;;5072811;28;20220;-86
2022/07/10 13:18:44;;;;;;;3.53;0.82;;;;;;;;;;5081360;28;20238;-86
2022/07/10 13:21:12;;;;;;;3.70;1.00;;;;;;;;;;5070103;28;20295;-87
2022/07/10 13:23:39;;;;;;;2.28;0.90;;;;;;;;;;5059409;28;20234;-86
2022/07/10 13:26:07;;;;;;;1.73;0.80;;;;;;;;;;5054293;28;20202;-86
2022/07/10 13:28:35;;;;;;;1.02;0.70;;;;;;;;;;5053565;28;20240;-86
2022/07/10 13:31:02;;;;;;;4.78;1.30;;;;;;;;;;5052951;28;20229;-86
2022/07/10 13:33:29;;;;;;;1.70;0.65;;;;;;;;;;5052496;28;20234;-85
2022/07/10 13:35:56;;;;;;;2.92;0.80;;;;;;;;;;5065692;28;20229;-87
2022/07/10 13:38:25;;;;;;;1.77;0.90;;;;;;;;;;5077378;28;20334;-85
2022/07/10 13:40:52;;;;;;;2.80;1.10;;;;;;;;;;5074011;28;20225;-87
2022/07/10 13:43:20;;;;;;;2.75;0.93;;;;;;;;;;5057029;28;20308;-88
2022/07/10 13:45:48;;;;;;;0.98;0.75;;;;;;;;;;5072462;28;20202;-87
2022/07/10 13:48:16;;;;;;;2.83;0.90;;;;;;;;;;5072754;28;20228;-87
2022/07/10 13:50:43;;;;;;;2.60;0.88;;;;;;;;;;5073275;28;20205;-85
2022/07/10 13:53:10;;;;;;;1.75;0.82;;;;;;;;;;5077018;28;20259;-85
2022/07/10 13:55:37;;;;;;;4.13;0.80;;;;;;;;;;5074978;28;20628;-84
2022/07/10 13:58:05;;;;;;;4.70;0.85;;;;;;;;;;5076009;28;20205;-85
2022/07/10 14:00:33;;;;;;;3.00;0.82;;;;;;;;;;5066127;28;20210;-85
2022/07/10 14:03:00;;;;;;;4.28;0.82;;;;;;;;;;5055116;28;20255;-86
2022/07/10 14:05:28;;;;;;;2.60;0.82;;;;;;;;;;5055236;28;20186;-85
2022/07/10 14:07:55;;;;;;;1.55;0.70;;;;;;;;;;5053916;28;20213;-85
2022/07/10 14:10:22;;;;;;;4.30;1.20;;;;;;;;;;5054997;28;20603;-85
2022/07/10 14:12:49;;;;;;;1.17;0.63;;;;;;;;;;5053374;28;20234;-84
2022/07/10 14:15:17;;;;;;;3.53;1.20;;;;;;;;;;5054314;28;20716;-84
2022/07/10 14:17:46;;;;;;;2.30;1.00;;;;;;;;;;5054049;28;20236;-84
2022/07/10 14:20:13;;;;;;;3.38;1.00;;;;;;;;;;5053595;28;20229;-84
2022/07/10 14:22:40;;;;;;;2.88;0.90;;;;;;;;;;5056888;28;20229;-84
2022/07/10 14:25:09;;;;;;;3.75;0.80;;;;;;;;;;5056993;28;20640;-85
2022/07/10 14:27:36;;;;;;;2.13;1.00;;;;;;;;;;5067378;28;20233;-86
2022/07/10 14:30:06;;;;;;;1.42;0.77;;;;;;;;;;5061293;28;20233;-85
2022/07/10 14:32:33;;;;;;;1.48;0.70;;;;;;;;;;5072002;28;20228;-85
2022/07/10 14:35:02;;;;;;;3.05;1.27;;;;;;;;;;5071219;28;20668;-86
2022/07/10 14:37:29;;;;;;;2.00;0.82;;;;;;;;;;5072133;28;20271;-86
2022/07/10 14:39:56;;;;;;;1.52;0.75;;;;;;;;;;5078695;28;20225;-86
2022/07/10 14:42:24;;;;;;;3.13;1.10;;;;;;;;;;5071234;28;20636;-85
2022/07/10 14:44:51;;;;;;;2.10;0.70;;;;;;;;;;5051075;28;20236;-86
2022/07/10 14:47:18;;;;;;;1.40;0.70;;;;;;;;;;5051924;28;20190;-87
2022/07/10 14:49:46;;;;;;;0.95;0.88;;;;;;;;;;5050763;28;20325;-86
2022/07/10 14:52:16;;;;;;;1.88;0.80;;;;;;;;;;5051402;28;20221;-85
2022/07/10 14:54:43;;;;;;;2.45;0.63;;;;;;;;;;5050733;28;20233;-85
2022/07/10 14:57:13;;;;;;;0.70;0.70;;;;;;;;;;5051431;28;20231;-86
2022/07/10 14:59:40;;;;;;;2.80;0.90;;;;;;;;;;5050959;28;20317;-85
2022/07/10 15:02:07;;;;;;;3.08;0.93;;;;;;;;;;5051350;28;20226;-85